Terminal Aerodrome Forecast
Issued by NWS

Home | Current Version | Previous Version | Text Only | Print | Product List | Glossary On
Versions: 1 2 3 4 5 6 7 8 9 10 11 12 13 14 15 16 17 18 19 20 21 22
704
FTUS44 KTSA 220816 AAB
TAFXNA
TAF AMD
KXNA 220816Z 2208/2306 VRB03KT 3/4SM BR VV002
      TEMPO 2208/2212 00000KT 1/4SM FG VV001
     FM221400 VRB02KT 1SM BR OVC003
     FM221500 VRB03KT 3SM BR SKC
     FM221600 21008KT P6SM SKC
     FM230000 VRB04KT P6SM SKC=

USA.gov is the U.S. government's official web portal to all federal, state and local government web resources and services.